sensor_id;sensor_type;location;lat;lon;timestamp;pressure;altitude;pressure_sealevel;temperature;humidity
2401;BME280;1211;43.200;27.914;2022-07-29T00:00:05;101184.38;;;23.34;100.00
2401;BME280;1211;43.200;27.914;2022-07-29T00:02:33;101177.94;;;23.40;100.00
2401;BME280;1211;43.200;27.914;2022-07-29T00:05:00;101175.94;;;23.41;100.00
2401;BME280;1211;43.200;27.914;2022-07-29T00:07:28;101179.56;;;23.38;100.00
2401;BME280;1211;43.200;27.914;2022-07-29T00:09:55;101174.72;;;23.38;100.00
2401;BME280;1211;43.200;27.914;2022-07-29T00:12:24;101173.56;;;23.25;100.00
2401;BME280;1211;43.200;27.914;2022-07-29T00:14:51;101178.38;;;23.18;100.00
2401;BME280;1211;43.200;27.914;2022-07-29T00:17:18;101176.75;;;23.31;100.00
2401;BME280;1211;43.200;27.914;2022-07-29T00:19:45;101171.50;;;23.33;100.00
2401;BME280;1211;43.200;27.914;2022-07-29T00:22:12;101165.88;;;23.40;100.00
2401;BME280;1211;43.200;27.914;2022-07-29T00:24:40;101179.16;;;23.43;100.00
2401;BME280;1211;43.200;27.914;2022-07-29T00:27:07;101183.16;;;23.35;100.00
2401;BME280;1211;43.200;27.914;2022-07-29T00:29:34;101185.63;;;22.97;100.00
2401;BME280;1211;43.200;27.914;2022-07-29T00:32:01;101175.56;;;22.96;100.00
2401;BME280;1211;43.200;27.914;2022-07-29T00:34:28;101178.38;;;22.96;100.00
2401;BME280;1211;43.200;27.914;2022-07-29T00:37:12;101185.59;;;23.01;100.00
2401;BME280;1211;43.200;27.914;2022-07-29T00:39:40;101178.41;;;23.04;100.00
2401;BME280;1211;43.200;27.914;2022-07-29T00:42:07;101177.16;;;23.12;100.00
2401;BME280;1211;43.200;27.914;2022-07-29T00:44:37;101184.00;;;22.96;100.00
2401;BME280;1211;43.200;27.914;2022-07-29T00:47:04;101182.38;;;22.81;100.00
2401;BME280;1211;43.200;27.914;2022-07-29T00:49:31;101178.78;;;23.06;100.00
2401;BME280;1211;43.200;27.914;2022-07-29T00:52:00;101167.53;;;23.06;100.00
2401;BME280;1211;43.200;27.914;2022-07-29T00:54:27;101171.94;;;23.07;100.00
2401;BME280;1211;43.200;27.914;2022-07-29T00:56:56;101172.38;;;23.09;100.00
2401;BME280;1211;43.200;27.914;2022-07-29T00:59:24;101165.94;;;23.19;100.00
2401;BME280;1211;43.200;27.914;2022-07-29T01:01:52;101169.16;;;22.96;100.00
2401;BME280;1211;43.200;27.914;2022-07-29T01:04:19;101174.78;;;22.96;100.00
2401;BME280;1211;43.200;27.914;2022-07-29T01:06:47;101171.94;;;23.24;100.00
2401;BME280;1211;43.200;27.914;2022-07-29T01:09:14;101173.13;;;22.81;100.00
2401;BME280;1211;43.200;27.914;2022-07-29T01:11:42;101176.38;;;22.83;100.00
2401;BME280;1211;43.200;27.914;2022-07-29T01:14:11;101169.13;;;22.82;100.00
2401;BME280;1211;43.200;27.914;2022-07-29T01:16:44;101167.47;;;22.59;100.00
2401;BME280;1211;43.200;27.914;2022-07-29T01:19:33;101173.91;;;22.67;100.00
2401;BME280;1211;43.200;27.914;2022-07-29T01:22:22;101169.94;;;22.82;100.00
2401;BME280;1211;43.200;27.914;2022-07-29T01:25:09;101162.69;;;22.67;100.00
2401;BME280;1211;43.200;27.914;2022-07-29T01:27:47;101163.88;;;22.70;100.00
2401;BME280;1211;43.200;27.914;2022-07-29T01:30:20;101164.31;;;22.75;100.00
2401;BME280;1211;43.200;27.914;2022-07-29T01:32:54;101168.28;;;22.56;100.00
2401;BME280;1211;43.200;27.914;2022-07-29T01:35:24;101157.06;;;22.67;100.00
2401;BME280;1211;43.200;27.914;2022-07-29T01:37:57;101159.50;;;22.72;100.00
2401;BME280;1211;43.200;27.914;2022-07-29T01:40:36;101154.69;;;22.76;100.00
2401;BME280;1211;43.200;27.914;2022-07-29T01:43:09;101153.88;;;22.69;100.00
2401;BME280;1211;43.200;27.914;2022-07-29T01:45:41;101153.91;;;22.79;100.00
2401;BME280;1211;43.200;27.914;2022-07-29T01:48:13;101155.88;;;22.75;100.00
2401;BME280;1211;43.200;27.914;2022-07-29T01:50:47;101155.50;;;22.73;100.00
2401;BME280;1211;43.200;27.914;2022-07-29T01:53:23;101155.44;;;22.59;100.00
2401;BME280;1211;43.200;27.914;2022-07-29T01:55:52;101155.41;;;22.41;100.00
2401;BME280;1211;43.200;27.914;2022-07-29T01:58:22;101144.19;;;22.48;100.00
2401;BME280;1211;43.200;27.914;2022-07-29T02:00:53;101145.38;;;22.33;100.00
2401;BME280;1211;43.200;27.914;2022-07-29T02:03:23;101145.72;;;22.17;100.00
2401;BME280;1211;43.200;27.914;2022-07-29T02:05:50;101150.59;;;22.38;100.00
2401;BME280;1211;43.200;27.914;2022-07-29T02:08:19;101143.34;;;22.19;100.00
2401;BME280;1211;43.200;27.914;2022-07-29T02:10:48;101146.56;;;22.22;100.00
2401;BME280;1211;43.200;27.914;2022-07-29T02:13:17;101146.13;;;22.12;100.00
2401;BME280;1211;43.200;27.914;2022-07-29T02:15:46;101154.50;;;21.98;100.00
2401;BME280;1211;43.200;27.914;2022-07-29T02:18:17;101144.50;;;22.04;100.00
2401;BME280;1211;43.200;27.914;2022-07-29T02:20:52;101137.69;;;22.12;100.00
2401;BME280;1211;43.200;27.914;2022-07-29T02:23:22;101142.13;;;22.10;100.00
2401;BME280;1211;43.200;27.914;2022-07-29T02:25:52;101140.91;;;22.14;100.00
2401;BME280;1211;43.200;27.914;2022-07-29T02:28:20;101145.75;;;22.25;100.00
2401;BME280;1211;43.200;27.914;2022-07-29T02:30:50;101143.31;;;22.05;100.00
2401;BME280;1211;43.200;27.914;2022-07-29T02:33:21;101136.88;;;22.12;100.00
2401;BME280;1211;43.200;27.914;2022-07-29T02:35:50;101153.72;;;22.05;100.00
2401;BME280;1211;43.200;27.914;2022-07-29T02:38:18;101148.09;;;22.01;100.00
2401;BME280;1211;43.200;27.914;2022-07-29T02:41:05;101144.50;;;22.04;100.00
2401;BME280;1211;43.200;27.914;2022-07-29T02:43:35;101148.00;;;21.91;100.00
2401;BME280;1211;43.200;27.914;2022-07-29T02:46:04;101155.31;;;22.02;100.00
2401;BME280;1211;43.200;27.914;2022-07-29T02:48:38;101159.34;;;22.08;100.00
2401;BME280;1211;43.200;27.914;2022-07-29T02:51:13;101156.53;;;22.08;100.00
2401;BME280;1211;43.200;27.914;2022-07-29T02:53:49;101163.38;;;22.14;100.00
2401;BME280;1211;43.200;27.914;2022-07-29T02:56:23;101166.59;;;22.16;100.00
2401;BME280;1211;43.200;27.914;2022-07-29T02:58:54;101168.13;;;22.07;100.00
2401;BME280;1211;43.200;27.914;2022-07-29T03:01:23;101158.88;;;21.96;100.00
2401;BME280;1211;43.200;27.914;2022-07-29T03:03:53;101158.97;;;22.21;100.00
2401;BME280;1211;43.200;27.914;2022-07-29T03:06:21;101165.78;;;22.19;100.00
2401;BME280;1211;43.200;27.914;2022-07-29T03:08:49;101158.94;;;22.13;100.00
2401;BME280;1211;43.200;27.914;2022-07-29T03:11:17;101169.41;;;22.24;100.00
2401;BME280;1211;43.200;27.914;2022-07-29T03:13:45;101170.63;;;22.23;100.00
2401;BME280;1211;43.200;27.914;2022-07-29T03:16:12;101176.22;;;22.23;100.00
2401;BME280;1211;43.200;27.914;2022-07-29T03:18:39;101174.59;;;22.14;100.00
2401;BME280;1211;43.200;27.914;2022-07-29T03:21:08;101182.78;;;22.80;100.00
2401;BME280;1211;43.200;27.914;2022-07-29T03:23:35;101176.28;;;22.44;100.00
2401;BME280;1211;43.200;27.914;2022-07-29T03:26:02;101181.81;;;22.15;100.00
2401;BME280;1211;43.200;27.914;2022-07-29T03:28:29;101186.72;;;22.40;100.00
2401;BME280;1211;43.200;27.914;2022-07-29T03:30:56;101187.53;;;22.51;100.00
2401;BME280;1211;43.200;27.914;2022-07-29T03:33:23;101185.13;;;22.46;100.00
2401;BME280;1211;43.200;27.914;2022-07-29T03:35:49;101181.91;;;22.44;100.00
2401;BME280;1211;43.200;27.914;2022-07-29T03:38:18;101190.75;;;22.56;100.00
2401;BME280;1211;43.200;27.914;2022-07-29T03:40:49;101195.91;;;22.40;100.00
2401;BME280;1211;43.200;27.914;2022-07-29T03:43:18;101199.13;;;22.39;100.00
2401;BME280;1211;43.200;27.914;2022-07-29T03:45:48;101197.97;;;22.50;100.00
2401;BME280;1211;43.200;27.914;2022-07-29T03:48:20;101206.44;;;22.68;100.00
2401;BME280;1211;43.200;27.914;2022-07-29T03:50:50;101195.56;;;22.67;100.00
2401;BME280;1211;43.200;27.914;2022-07-29T03:53:18;101202.06;;;22.95;100.00
2401;BME280;1211;43.200;27.914;2022-07-29T03:55:50;101205.25;;;23.05;100.00
2401;BME280;1211;43.200;27.914;2022-07-29T03:58:18;101203.25;;;23.65;100.00
2401;BME280;1211;43.200;27.914;2022-07-29T04:00:46;101208.06;;;23.40;100.00
2401;BME280;1211;43.200;27.914;2022-07-29T04:03:13;101210.09;;;23.29;100.00
2401;BME280;1211;43.200;27.914;2022-07-29T04:05:40;101202.84;;;23.67;100.00
2401;BME280;1211;43.200;27.914;2022-07-29T04:08:07;101207.28;;;23.29;100.00
2401;BME280;1211;43.200;27.914;2022-07-29T04:10:35;101208.50;;;23.49;100.00
2401;BME280;1211;43.200;27.914;2022-07-29T04:13:02;101199.59;;;23.61;100.00
2401;BME280;1211;43.200;27.914;2022-07-29T04:15:29;101204.25;;;24.28;100.00
2401;BME280;1211;43.200;27.914;2022-07-29T04:17:56;101208.88;;;25.22;100.00
2401;BME280;1211;43.200;27.914;2022-07-29T04:20:22;101207.09;;;25.38;100.00
2401;BME280;1211;43.200;27.914;2022-07-29T04:22:49;101208.41;;;25.27;100.00
2401;BME280;1211;43.200;27.914;2022-07-29T04:25:16;101205.03;;;26.17;100.00
2401;BME280;1211;43.200;27.914;2022-07-29T04:27:44;101193.94;;;26.00;100.00
2401;BME280;1211;43.200;27.914;2022-07-29T04:30:25;101205.34;;;26.27;100.00
2401;BME280;1211;43.200;27.914;2022-07-29T04:32:52;101206.44;;;26.63;100.00
2401;BME280;1211;43.200;27.914;2022-07-29T04:35:19;101212.56;;;26.58;100.00
2401;BME280;1211;43.200;27.914;2022-07-29T04:37:46;101207.94;;;26.71;100.00
2401;BME280;1211;43.200;27.914;2022-07-29T04:40:13;101200.13;;;27.75;100.00
2401;BME280;1211;43.200;27.914;2022-07-29T04:42:40;101205.69;;;28.58;100.00
2401;BME280;1211;43.200;27.914;2022-07-29T04:45:09;101201.56;;;29.60;100.00
2401;BME280;1211;43.200;27.914;2022-07-29T04:47:35;101203.69;;;29.56;100.00
2401;BME280;1211;43.200;27.914;2022-07-29T04:50:03;101212.94;;;29.27;100.00
2401;BME280;1211;43.200;27.914;2022-07-29T04:52:30;101201.31;;;29.22;100.00
2401;BME280;1211;43.200;27.914;2022-07-29T04:54:57;101199.19;;;29.09;100.00
2401;BME280;1211;43.200;27.914;2022-07-29T04:57:24;101205.44;;;30.23;100.00
2401;BME280;1211;43.200;27.914;2022-07-29T04:59:51;101206.47;;;28.58;100.00
2401;BME280;1211;43.200;27.914;2022-07-29T05:02:19;101196.19;;;29.00;100.00
2401;BME280;1211;43.200;27.914;2022-07-29T05:04:47;101207.13;;;30.21;100.00
2401;BME280;1211;43.200;27.914;2022-07-29T05:07:14;101213.69;;;30.72;100.00
2401;BME280;1211;43.200;27.914;2022-07-29T05:09:41;101204.72;;;30.19;100.00
2401;BME280;1211;43.200;27.914;2022-07-29T05:12:08;101193.44;;;30.70;100.00
2401;BME280;1211;43.200;27.914;2022-07-29T05:14:35;101203.81;;;31.15;100.00
2401;BME280;1211;43.200;27.914;2022-07-29T05:17:02;101204.53;;;31.97;97.17
2401;BME280;1211;43.200;27.914;2022-07-29T05:19:30;101206.78;;;31.80;95.78
2401;BME280;1211;43.200;27.914;2022-07-29T05:21:57;101207.53;;;32.37;92.17
2401;BME280;1211;43.200;27.914;2022-07-29T05:24:25;101211.59;;;31.36;95.21
2401;BME280;1211;43.200;27.914;2022-07-29T05:26:53;101207.53;;;31.12;100.00
2401;BME280;1211;43.200;27.914;2022-07-29T05:29:20;101205.19;;;32.44;92.56
2401;BME280;1211;43.200;27.914;2022-07-29T05:31:47;101205.09;;;31.82;91.95
2401;BME280;1211;43.200;27.914;2022-07-29T05:34:14;101211.38;;;31.30;94.59
2401;BME280;1211;43.200;27.914;2022-07-29T05:36:42;101201.13;;;32.02;92.51
2401;BME280;1211;43.200;27.914;2022-07-29T05:39:09;101203.22;;;31.88;91.40
2401;BME280;1211;43.200;27.914;2022-07-29T05:41:36;101209.19;;;32.47;88.52
2401;BME280;1211;43.200;27.914;2022-07-29T05:44:03;101204.66;;;33.75;82.72
2401;BME280;1211;43.200;27.914;2022-07-29T05:46:30;101209.41;;;33.78;80.96
2401;BME280;1211;43.200;27.914;2022-07-29T05:48:56;101208.44;;;34.08;80.06
2401;BME280;1211;43.200;27.914;2022-07-29T05:51:23;101214.41;;;34.47;78.47
2401;BME280;1211;43.200;27.914;2022-07-29T05:53:51;101216.91;;;34.72;76.49
2401;BME280;1211;43.200;27.914;2022-07-29T05:56:18;101225.78;;;34.65;75.82
2401;BME280;1211;43.200;27.914;2022-07-29T05:58:45;101217.72;;;35.29;74.34
2401;BME280;1211;43.200;27.914;2022-07-29T06:01:12;101217.56;;;35.71;72.85
2401;BME280;1211;43.200;27.914;2022-07-29T06:03:39;101216.94;;;34.45;74.47
2401;BME280;1211;43.200;27.914;2022-07-29T06:06:06;101224.84;;;35.34;71.55
2401;BME280;1211;43.200;27.914;2022-07-29T06:08:34;101218.25;;;34.44;73.74
2401;BME280;1211;43.200;27.914;2022-07-29T06:11:03;101222.13;;;35.06;72.67
2401;BME280;1211;43.200;27.914;2022-07-29T06:13:32;101225.00;;;35.54;69.28
2401;BME280;1211;43.200;27.914;2022-07-29T06:15:59;101230.25;;;35.79;68.96
2401;BME280;1211;43.200;27.914;2022-07-29T06:18:26;101233.06;;;36.03;66.69
2401;BME280;1211;43.200;27.914;2022-07-29T06:20:53;101232.28;;;36.03;67.06
2401;BME280;1211;43.200;27.914;2022-07-29T06:23:20;101225.78;;;36.31;65.40
2401;BME280;1211;43.200;27.914;2022-07-29T06:25:47;101231.84;;;36.33;64.92
2401;BME280;1211;43.200;27.914;2022-07-29T06:28:15;101230.22;;;36.77;62.78
2401;BME280;1211;43.200;27.914;2022-07-29T06:30:42;101236.94;;;36.15;62.23
2401;BME280;1211;43.200;27.914;2022-07-29T06:33:09;101230.72;;;37.25;60.46
2401;BME280;1211;43.200;27.914;2022-07-29T06:35:36;101223.44;;;37.09;60.10
2401;BME280;1211;43.200;27.914;2022-07-29T06:38:04;101217.69;;;37.49;58.71
2401;BME280;1211;43.200;27.914;2022-07-29T06:40:31;101230.44;;;37.83;55.89
2401;BME280;1211;43.200;27.914;2022-07-29T06:43:17;101231.00;;;37.47;55.75
2401;BME280;1211;43.200;27.914;2022-07-29T06:45:45;101228.63;;;37.45;55.15
2401;BME280;1211;43.200;27.914;2022-07-29T06:48:12;101234.31;;;37.05;55.72
2401;BME280;1211;43.200;27.914;2022-07-29T06:50:39;101229.59;;;37.02;55.53
2401;BME280;1211;43.200;27.914;2022-07-29T06:53:06;101230.94;;;37.82;54.18
2401;BME280;1211;43.200;27.914;2022-07-29T06:55:33;101233.91;;;38.13;54.08
2401;BME280;1211;43.200;27.914;2022-07-29T06:57:59;101219.38;;;37.36;57.39
2401;BME280;1211;43.200;27.914;2022-07-29T07:00:28;101218.16;;;37.63;56.71
2401;BME280;1211;43.200;27.914;2022-07-29T07:02:55;101214.50;;;37.07;57.20
2401;BME280;1211;43.200;27.914;2022-07-29T07:05:22;101207.44;;;36.58;59.54
2401;BME280;1211;43.200;27.914;2022-07-29T07:07:49;101212.81;;;36.51;59.22
2401;BME280;1211;43.200;27.914;2022-07-29T07:10:16;101221.22;;;37.04;57.96
2401;BME280;1211;43.200;27.914;2022-07-29T07:12:43;101229.06;;;37.38;56.54
2401;BME280;1211;43.200;27.914;2022-07-29T07:15:10;101216.50;;;37.01;57.23
2401;BME280;1211;43.200;27.914;2022-07-29T07:17:38;101228.34;;;37.23;56.15
2401;BME280;1211;43.200;27.914;2022-07-29T07:20:06;101218.78;;;37.11;56.80
2401;BME280;1211;43.200;27.914;2022-07-29T07:22:34;101232.13;;;36.50;56.38
2401;BME280;1211;43.200;27.914;2022-07-29T07:25:01;101226.13;;;36.63;55.85
2401;BME280;1211;43.200;27.914;2022-07-29T07:27:27;101236.53;;;36.07;55.72
2401;BME280;1211;43.200;27.914;2022-07-29T07:29:55;101238.13;;;35.93;55.13
2401;BME280;1211;43.200;27.914;2022-07-29T07:32:22;101235.84;;;36.12;54.56
2401;BME280;1211;43.200;27.914;2022-07-29T07:34:50;101237.59;;;36.33;54.91
2401;BME280;1211;43.200;27.914;2022-07-29T07:37:17;101230.78;;;36.07;54.81
2401;BME280;1211;43.200;27.914;2022-07-29T07:39:45;101244.22;;;36.01;55.85
2401;BME280;1211;43.200;27.914;2022-07-29T07:42:12;101236.31;;;35.81;56.93
2401;BME280;1211;43.200;27.914;2022-07-29T07:44:39;101239.16;;;36.64;55.83
2401;BME280;1211;43.200;27.914;2022-07-29T07:47:06;101236.47;;;36.75;55.86
2401;BME280;1211;43.200;27.914;2022-07-29T07:49:32;101234.56;;;37.57;55.69
2401;BME280;1211;43.200;27.914;2022-07-29T07:52:01;101238.56;;;36.16;57.99
2401;BME280;1211;43.200;27.914;2022-07-29T07:54:28;101234.63;;;36.28;57.03
2401;BME280;1211;43.200;27.914;2022-07-29T07:56:55;101242.53;;;35.56;60.73
2401;BME280;1211;43.200;27.914;2022-07-29T07:59:22;101241.16;;;35.19;60.77
2401;BME280;1211;43.200;27.914;2022-07-29T08:01:48;101231.91;;;34.91;60.51
2401;BME280;1211;43.200;27.914;2022-07-29T08:04:15;101227.16;;;34.37;61.32
2401;BME280;1211;43.200;27.914;2022-07-29T08:06:42;101236.97;;;34.54;63.05
2401;BME280;1211;43.200;27.914;2022-07-29T08:09:11;101235.47;;;34.77;60.65
2401;BME280;1211;43.200;27.914;2022-07-29T08:11:38;101230.88;;;34.70;60.16
2401;BME280;1211;43.200;27.914;2022-07-29T08:14:04;101231.31;;;34.08;57.62
2401;BME280;1211;43.200;27.914;2022-07-29T08:16:31;101227.16;;;34.37;58.17
2401;BME280;1211;43.200;27.914;2022-07-29T08:18:58;101225.09;;;34.79;57.63
2401;BME280;1211;43.200;27.914;2022-07-29T08:21:25;101236.72;;;34.24;58.58
2401;BME280;1211;43.200;27.914;2022-07-29T08:23:52;101233.19;;;35.23;56.85
2401;BME280;1211;43.200;27.914;2022-07-29T08:26:41;101227.22;;;35.02;56.32
2401;BME280;1211;43.200;27.914;2022-07-29T08:29:08;101215.72;;;34.27;57.74
2401;BME280;1211;43.200;27.914;2022-07-29T08:31:36;101231.75;;;34.94;56.55
2401;BME280;1211;43.200;27.914;2022-07-29T08:34:03;101216.44;;;34.55;57.00
2401;BME280;1211;43.200;27.914;2022-07-29T08:36:30;101222.34;;;34.52;56.60
2401;BME280;1211;43.200;27.914;2022-07-29T08:38:57;101221.31;;;34.73;57.13
2401;BME280;1211;43.200;27.914;2022-07-29T08:41:25;101224.84;;;35.34;56.35
2401;BME280;1211;43.200;27.914;2022-07-29T08:43:53;101228.03;;;36.13;55.13
2401;BME280;1211;43.200;27.914;2022-07-29T08:46:21;101227.81;;;36.02;53.02
2401;BME280;1211;43.200;27.914;2022-07-29T08:48:48;101227.91;;;35.92;53.12
2401;BME280;1211;43.200;27.914;2022-07-29T08:51:16;101227.41;;;34.99;54.17
2401;BME280;1211;43.200;27.914;2022-07-29T08:53:46;101224.41;;;34.93;54.52
2401;BME280;1211;43.200;27.914;2022-07-29T08:56:15;101214.69;;;34.58;55.44
2401;BME280;1211;43.200;27.914;2022-07-29T08:58:44;101216.75;;;34.99;53.81
2401;BME280;1211;43.200;27.914;2022-07-29T09:01:17;101221.84;;;35.28;52.98
2401;BME280;1211;43.200;27.914;2022-07-29T09:03:45;101221.38;;;35.53;53.84
2401;BME280;1211;43.200;27.914;2022-07-29T09:06:13;101213.34;;;34.68;56.09
2401;BME280;1211;43.200;27.914;2022-07-29T09:08:41;101216.72;;;35.94;54.62
2401;BME280;1211;43.200;27.914;2022-07-29T09:11:08;101210.03;;;36.56;53.66
2401;BME280;1211;43.200;27.914;2022-07-29T09:13:36;101208.06;;;36.62;54.77
2401;BME280;1211;43.200;27.914;2022-07-29T09:16:04;101214.97;;;36.85;54.04
2401;BME280;1211;43.200;27.914;2022-07-29T09:18:38;101214.13;;;36.99;51.80
2401;BME280;1211;43.200;27.914;2022-07-29T09:21:06;101208.84;;;36.78;52.42
2401;BME280;1211;43.200;27.914;2022-07-29T09:24:04;101210.19;;;36.97;51.28
2401;BME280;1211;43.200;27.914;2022-07-29T09:26:33;101196.66;;;35.32;52.70
2401;BME280;1211;43.200;27.914;2022-07-29T09:29:07;101205.03;;;34.88;53.73
2401;BME280;1211;43.200;27.914;2022-07-29T09:31:37;101193.81;;;36.24;53.34
2401;BME280;1211;43.200;27.914;2022-07-29T09:34:07;101194.47;;;35.51;53.60
2401;BME280;1211;43.200;27.914;2022-07-29T09:36:39;101205.03;;;36.22;54.13
2401;BME280;1211;43.200;27.914;2022-07-29T09:39:06;101204.50;;;36.38;53.81
2401;BME280;1211;43.200;27.914;2022-07-29T09:41:44;101205.25;;;36.83;55.13
2401;BME280;1211;43.200;27.914;2022-07-29T09:44:12;101197.50;;;36.39;57.38
2401;BME280;1211;43.200;27.914;2022-07-29T09:46:40;101193.81;;;36.24;59.74
2401;BME280;1211;43.200;27.914;2022-07-29T09:49:10;101200.72;;;36.61;59.72
2401;BME280;1211;43.200;27.914;2022-07-29T09:51:38;101199.13;;;36.60;59.76
2401;BME280;1211;43.200;27.914;2022-07-29T09:54:21;101196.16;;;37.39;58.27
2401;BME280;1211;43.200;27.914;2022-07-29T09:56:49;101205.72;;;36.17;58.76
2401;BME280;1211;43.200;27.914;2022-07-29T09:59:16;101205.38;;;36.73;58.80
2401;BME280;1211;43.200;27.914;2022-07-29T10:01:45;101208.69;;;36.22;59.93
2401;BME280;1211;43.200;27.914;2022-07-29T10:04:14;101203.94;;;36.34;58.53
2401;BME280;1211;43.200;27.914;2022-07-29T10:06:56;101206.84;;;35.96;59.80
2401;BME280;1211;43.200;27.914;2022-07-29T10:09:23;101204.63;;;35.04;60.91
2401;BME280;1211;43.200;27.914;2022-07-29T10:12:06;101192.59;;;34.91;61.59
2401;BME280;1211;43.200;27.914;2022-07-29T10:14:35;101198.91;;;35.04;63.70
2401;BME280;1211;43.200;27.914;2022-07-29T10:17:04;101200.91;;;35.84;62.28
2401;BME280;1211;43.200;27.914;2022-07-29T10:19:33;101200.31;;;35.57;62.67
2401;BME280;1211;43.200;27.914;2022-07-29T10:22:02;101194.44;;;35.03;63.93
2401;BME280;1211;43.200;27.914;2022-07-29T10:24:31;101201.56;;;34.84;65.07
2401;BME280;1211;43.200;27.914;2022-07-29T10:26:59;101203.31;;;34.82;65.33
2401;BME280;1211;43.200;27.914;2022-07-29T10:29:26;101194.22;;;34.41;67.54
2401;BME280;1211;43.200;27.914;2022-07-29T10:32:22;101198.41;;;34.73;66.92
2401;BME280;1211;43.200;27.914;2022-07-29T10:35:11;101187.44;;;34.11;70.42
2401;BME280;1211;43.200;27.914;2022-07-29T10:37:59;101186.13;;;34.40;69.63
2401;BME280;1211;43.200;27.914;2022-07-29T10:40:36;101182.09;;;33.86;71.85
2401;BME280;1211;43.200;27.914;2022-07-29T10:43:28;101188.84;;;34.16;73.01
2401;BME280;1211;43.200;27.914;2022-07-29T10:45:56;101187.28;;;35.32;69.39
2401;BME280;1211;43.200;27.914;2022-07-29T10:48:24;101189.53;;;34.71;66.97
2401;BME280;1211;43.200;27.914;2022-07-29T10:50:57;101198.16;;;34.53;68.44
2401;BME280;1211;43.200;27.914;2022-07-29T10:53:46;101192.72;;;33.95;67.96
2401;BME280;1211;43.200;27.914;2022-07-29T10:56:32;101195.06;;;34.05;69.83
2401;BME280;1211;43.200;27.914;2022-07-29T10:59:24;101196.22;;;33.89;70.36
2401;BME280;1211;43.200;27.914;2022-07-29T11:01:52;101194.78;;;33.39;70.75
2401;BME280;1211;43.200;27.914;2022-07-29T11:07:20;101182.44;;;32.93;75.02
2401;BME280;1211;43.200;27.914;2022-07-29T11:12:50;101179.81;;;32.68;77.60
2401;BME280;1211;43.200;27.914;2022-07-29T11:15:19;101175.94;;;33.02;75.48
2401;BME280;1211;43.200;27.914;2022-07-29T11:18:08;101176.00;;;33.29;75.17
2401;BME280;1211;43.200;27.914;2022-07-29T11:20:40;101183.34;;;33.67;75.17
2401;BME280;1211;43.200;27.914;2022-07-29T11:23:24;101185.78;;;33.01;78.80
2401;BME280;1211;43.200;27.914;2022-07-29T11:26:15;101176.66;;;32.44;83.62
2401;BME280;1211;43.200;27.914;2022-07-29T11:28:54;101174.19;;;32.03;84.18
2401;BME280;1211;43.200;27.914;2022-07-29T11:31:38;101163.63;;;32.34;81.93
2401;BME280;1211;43.200;27.914;2022-07-29T11:34:17;101169.28;;;31.81;84.90
2401;BME280;1211;43.200;27.914;2022-07-29T11:37:19;101169.94;;;32.07;84.13
2401;BME280;1211;43.200;27.914;2022-07-29T11:40:09;101165.81;;;32.08;86.15
2401;BME280;1211;43.200;27.914;2022-07-29T11:42:43;101165.03;;;31.86;89.14
2401;BME280;1211;43.200;27.914;2022-07-29T11:45:15;101167.75;;;32.33;86.55
2401;BME280;1211;43.200;27.914;2022-07-29T11:47:47;101152.31;;;32.52;86.75
2401;BME280;1211;43.200;27.914;2022-07-29T11:50:17;101154.34;;;32.83;85.37
2401;BME280;1211;43.200;27.914;2022-07-29T11:52:45;101156.25;;;32.95;83.64
2401;BME280;1211;43.200;27.914;2022-07-29T16:12:53;101055.19;;;28.85;100.00
2401;BME280;1211;43.200;27.914;2022-07-29T16:15:20;101061.91;;;29.36;100.00
2401;BME280;1211;43.200;27.914;2022-07-29T16:17:47;101060.38;;;28.86;100.00
2401;BME280;1211;43.200;27.914;2022-07-29T16:20:15;101069.75;;;29.44;100.00
2401;BME280;1211;43.200;27.914;2022-07-29T16:22:42;101069.13;;;29.08;100.00
2401;BME280;1211;43.200;27.914;2022-07-29T16:25:09;101065.13;;;29.05;100.00
2401;BME280;1211;43.200;27.914;2022-07-29T16:27:35;101073.00;;;29.72;100.00
2401;BME280;1211;43.200;27.914;2022-07-29T16:30:05;101073.41;;;29.00;100.00
2401;BME280;1211;43.200;27.914;2022-07-29T16:32:34;101062.25;;;28.60;100.00
2401;BME280;1211;43.200;27.914;2022-07-29T16:35:01;101072.00;;;28.59;100.00
2401;BME280;1211;43.200;27.914;2022-07-29T16:37:29;101059.94;;;28.72;100.00
2401;BME280;1211;43.200;27.914;2022-07-29T16:39:59;101064.72;;;28.75;100.00
2401;BME280;1211;43.200;27.914;2022-07-29T16:42:26;101063.13;;;28.57;100.00
2401;BME280;1211;43.200;27.914;2022-07-29T16:44:53;101057.44;;;28.57;100.00
2401;BME280;1211;43.200;27.914;2022-07-29T16:47:21;101061.53;;;28.40;100.00
2401;BME280;1211;43.200;27.914;2022-07-29T16:49:49;101052.16;;;28.43;100.00
2401;BME280;1211;43.200;27.914;2022-07-29T16:52:16;101057.81;;;28.43;100.00
2401;BME280;1211;43.200;27.914;2022-07-29T16:54:43;101058.00;;;28.36;100.00
2401;BME280;1211;43.200;27.914;2022-07-29T16:57:10;101065.44;;;28.46;100.00
2401;BME280;1211;43.200;27.914;2022-07-29T16:59:37;101065.31;;;28.34;100.00
2401;BME280;1211;43.200;27.914;2022-07-29T17:02:04;101059.06;;;28.26;100.00
2401;BME280;1211;43.200;27.914;2022-07-29T17:04:32;101065.78;;;28.32;100.00
2401;BME280;1211;43.200;27.914;2022-07-29T17:06:59;101062.47;;;28.17;100.00
2401;BME280;1211;43.200;27.914;2022-07-29T17:09:26;101079.00;;;28.03;100.00
2401;BME280;1211;43.200;27.914;2022-07-29T17:11:53;101069.78;;;27.99;100.00
2401;BME280;1211;43.200;27.914;2022-07-29T17:14:22;101074.19;;;28.00;100.00
2401;BME280;1211;43.200;27.914;2022-07-29T17:16:50;101062.06;;;27.99;100.00
2401;BME280;1211;43.200;27.914;2022-07-29T17:19:17;101073.13;;;27.94;100.00
2401;BME280;1211;43.200;27.914;2022-07-29T17:21:45;101067.44;;;27.94;100.00
2401;BME280;1211;43.200;27.914;2022-07-29T17:24:12;101062.69;;;27.91;100.00
2401;BME280;1211;43.200;27.914;2022-07-29T17:26:39;101064.94;;;27.79;100.00
2401;BME280;1211;43.200;27.914;2022-07-29T17:29:07;101068.91;;;27.82;100.00
2401;BME280;1211;43.200;27.914;2022-07-29T17:31:34;101071.41;;;27.80;100.00